»·PEaware :: OM-ALJ L52-L88

OM-ALJ :: L52-L88

FLIGHT INFORMATION

Flight Status: Arrived
Operator: Privately registered:
Slovakia
More flights under this callsign
Pilot: Jan A. (20210)
Aircraft: CESSNA 172 SKYHAWK
(C172)
More flights by this aircraft type
Origin: L52 Oceano Co
United States
Destination: L88 New Cuyama
United States
More flights between these airports :: More routes between these airports
Route:
File this flight plan on PilotEdge
Remarks: Sample flight plan
Altitude:
(Current/Filed)
7,500ft
Speed:
(Current/Filed)
105kts
Departed: 21-Sep-18 12:46 PM
Arrived: 21-Sep-18 01:19 PM
Distance/Time
Traveled:
47nm/0:33
Distance/Time
To Go:
Arrived

Flight Plot

Page will automatically refresh every two minutes.


Map Options




Map Legend


Flown Route
Filed Route
Departure Airport
Arrival Airport
Navaid (VOR, NDB)
Fix

Horizontal Profiles

Position Reports

Time Latitude Longitude Heading Altitude Ground
Speed
21-Sep-18 12:34 35.102465 -120.622784 34 16ft 0kts
21-Sep-18 12:35 35.102464 -120.622784 34 16ft 0kts
21-Sep-18 12:36 35.102464 -120.622784 34 16ft 0kts
21-Sep-18 12:37 35.102464 -120.622784 34 16ft 0kts
21-Sep-18 12:38 35.102464 -120.622784 34 16ft 0kts
21-Sep-18 12:39 35.102464 -120.622784 34 16ft 0kts
21-Sep-18 12:40 35.102464 -120.622784 34 16ft 0kts
21-Sep-18 12:41 35.102464 -120.622784 34 16ft 0kts
21-Sep-18 12:42 35.102464 -120.622784 34 16ft 0kts
21-Sep-18 12:43 35.102464 -120.622784 34 16ft 0kts
21-Sep-18 12:44 35.102179 -120.622085 134 16ft 7kts
21-Sep-18 12:45 35.101035 -120.622265 121 15ft 7kts
21-Sep-18 12:46 35.099727 -120.619822 128 16ft 6kts
21-Sep-18 12:47 35.099541 -120.619378 72 16ft 0kts
21-Sep-18 12:48 35.102318 -120.623827 303 15ft 74kts
21-Sep-18 12:49 35.113752 -120.641363 327 1068ft 68kts
21-Sep-18 12:50 35.116734 -120.626192 126 2048ft 77kts
21-Sep-18 12:51 35.101169 -120.609178 124 3089ft 77kts
21-Sep-18 12:52 35.092543 -120.584982 128 3984ft 89kts
21-Sep-18 12:53 35.087000 -120.557397 88 4992ft 80kts
21-Sep-18 12:54 35.084728 -120.528654 101 5834ft 87kts
21-Sep-18 12:55 35.078754 -120.500222 101 6685ft 87kts
21-Sep-18 12:56 35.075793 -120.470487 99 7412ft 97kts
21-Sep-18 12:57 35.071691 -120.436016 99 7657ft 111kts
21-Sep-18 12:58 35.063896 -120.395773 94 7601ft 117kts
21-Sep-18 12:59 35.060258 -120.354450 95 7576ft 119kts
21-Sep-18 13:00 35.054505 -120.313920 108 7515ft 127kts
21-Sep-18 13:01 35.042607 -120.274608 106 7538ft 124kts
21-Sep-18 13:02 35.032329 -120.234972 108 7560ft 124kts
21-Sep-18 13:03 35.021660 -120.193187 106 7440ft 123kts
21-Sep-18 13:04 35.014108 -120.152762 99 7460ft 123kts
21-Sep-18 13:05 35.008371 -120.112151 101 7511ft 122kts
21-Sep-18 13:06 35.004032 -120.071419 99 7559ft 121kts
21-Sep-18 13:07 34.997144 -120.032096 103 7599ft 124kts
21-Sep-18 13:08 34.990612 -119.989634 99 7546ft 119kts
21-Sep-18 13:09 34.985982 -119.950012 97 7639ft 119kts
21-Sep-18 13:10 34.978299 -119.910929 112 7706ft 121kts
21-Sep-18 13:11 34.962323 -119.873124 120 6171ft 114kts
21-Sep-18 13:12 34.945093 -119.840727 118 5599ft 113kts
21-Sep-18 13:13 34.930698 -119.806821 113 5060ft 112kts
21-Sep-18 13:14 34.922204 -119.775100 108 4295ft 94kts
21-Sep-18 13:15 34.916037 -119.744628 79 3509ft 94kts
21-Sep-18 13:16 34.921347 -119.717066 94 3230ft 73kts
21-Sep-18 13:17 34.917975 -119.693068 97 3289ft 72kts
21-Sep-18 13:18 34.913077 -119.669313 105 3420ft 78kts
21-Sep-18 13:19 34.928463 -119.657386 329 2836ft 75kts
21-Sep-18 13:20 34.937001 -119.678334 296 2256ft 64kts
21-Sep-18 13:21 34.941953 -119.690528 297 2157ft 25kts
21-Sep-18 13:22 34.943101 -119.690925 29 2154ft 3kts
21-Sep-18 13:23 34.943396 -119.690774 277 2154ft 0kts
21-Sep-18 13:24 34.943396 -119.690774 277 2154ft 0kts
21-Sep-18 13:25 34.943396 -119.690774 277 2154ft 0kts
21-Sep-18 13:26 34.943396 -119.690774 277 2154ft 0kts
21-Sep-18 13:27 34.943396 -119.690774 277 2154ft 0kts
21-Sep-18 13:28 34.943396 -119.690774 277 2154ft 0kts
21-Sep-18 13:29 34.943396 -119.690774 277 2154ft 0kts
21-Sep-18 13:30 34.943396 -119.690773 277 2154ft 0kts

Navigation Log

Ident Type
Flight plan parsing failed, navigation log unavailable